Time;durP1;ratioP1;P1;durP2;ratioP2;P2;SDS_P1;SDS_P2;PMS_P1;PMS_P2;Temp;Humidity;BMP_temperature;BMP_pressure;BME280_temperature;BME280_humidity;BME280_pressure;Samples;Min_cycle;Max_cycle;Signal;HPM_P1;HPM_P2
2023/09/15 00:00:25;;;;;;;6.17;5.67;;;24.40;55.10;;;;;;4972358;28;20264;-66
2023/09/15 00:02:54;;;;;;;4.90;4.50;;;24.40;55.10;;;;;;4970421;28;20444;-65
2023/09/15 00:05:20;;;;;;;4.83;4.43;;;24.30;55.00;;;;;;4972047;28;20428;-65
2023/09/15 00:07:46;;;;;;;5.40;4.90;;;24.30;55.00;;;;;;4970667;28;20417;-65
2023/09/15 00:10:12;;;;;;;5.13;4.60;;;24.30;55.00;;;;;;4971020;28;20680;-65
2023/09/15 00:12:40;;;;;;;4.93;4.47;;;24.30;55.10;;;;;;4970580;28;20492;-65
2023/09/15 00:15:07;;;;;;;4.87;4.47;;;24.30;55.00;;;;;;4971833;28;20459;-64
2023/09/15 00:17:36;;;;;;;5.30;4.80;;;24.30;55.00;;;;;;4972127;28;20472;-64
2023/09/15 00:20:36;;;;;;;5.70;5.20;;;24.30;55.00;;;;;;4970590;28;20409;-65
2023/09/15 00:22:56;;;;;;;5.20;4.73;;;24.30;55.00;;;;;;4968767;28;20437;-65
2023/09/15 00:25:27;;;;;;;6.13;5.63;;;24.30;55.00;;;;;;4971832;28;20500;-65
2023/09/15 00:27:54;;;;;;;6.60;5.87;;;24.30;55.00;;;;;;4972098;28;20413;-65
2023/09/15 00:30:22;;;;;;;5.30;4.90;;;24.30;55.00;;;;;;4971901;28;20967;-65
2023/09/15 00:32:49;;;;;;;5.57;5.07;;;24.30;55.00;;;;;;4970379;28;20441;-65
2023/09/15 00:35:19;;;;;;;5.27;4.77;;;24.30;55.00;;;;;;4970949;28;20461;-66
2023/09/15 00:37:49;;;;;;;6.37;5.77;;;24.30;55.00;;;;;;4971184;28;20397;-65
2023/09/15 00:40:19;;;;;;;5.70;5.20;;;24.30;55.00;;;;;;4971692;28;20409;-65
2023/09/15 00:42:46;;;;;;;6.10;5.57;;;24.30;54.90;;;;;;4970431;28;20435;-65
2023/09/15 00:45:15;;;;;;;5.87;5.27;;;24.20;54.90;;;;;;4954563;28;20409;-65
2023/09/15 00:47:46;;;;;;;6.13;5.60;;;24.20;54.90;;;;;;4970636;28;20429;-65
2023/09/15 00:50:18;;;;;;;5.90;5.40;;;24.20;54.90;;;;;;4970659;28;20485;-65
2023/09/15 00:52:45;;;;;;;6.40;5.90;;;24.20;54.90;;;;;;4971786;28;20429;-64
2023/09/15 00:55:13;;;;;;;5.70;5.20;;;24.20;54.90;;;;;;4970154;28;20524;-65
2023/09/15 00:57:39;;;;;;;6.10;5.60;;;24.20;54.80;;;;;;4971654;28;20468;-65
2023/09/15 01:00:12;;;;;;;5.70;5.10;;;24.20;54.90;;;;;;4954351;28;20509;-65
2023/09/15 01:02:39;;;;;;;5.83;5.20;;;24.20;54.90;;;;;;4971800;28;20487;-65
2023/09/15 01:05:06;;;;;;;5.70;5.20;;;24.20;54.80;;;;;;4956658;28;20755;-65
2023/09/15 01:07:33;;;;;;;6.27;5.77;;;24.20;54.80;;;;;;4957767;28;20412;-65
2023/09/15 01:10:00;;;;;;;6.03;5.43;;;24.20;54.80;;;;;;4973717;28;20977;-65
2023/09/15 01:12:26;;;;;;;6.10;5.53;;;24.20;54.80;;;;;;4957501;28;20814;-64
2023/09/15 01:14:51;;;;;;;6.10;5.60;;;24.20;54.80;;;;;;4973476;28;20445;-65
2023/09/15 01:17:22;;;;;;;6.00;5.40;;;24.20;54.80;;;;;;4957540;28;20228;-65
2023/09/15 01:20:13;;;;;;;6.30;5.80;;;24.20;54.80;;;;;;4974816;28;20161;-66
2023/09/15 01:23:01;;;;;;;6.13;5.63;;;24.20;54.70;;;;;;4973464;28;20572;-65
2023/09/15 01:25:45;;;;;;;7.20;6.60;;;24.20;54.70;;;;;;4974827;28;20931;-65
2023/09/15 01:28:33;;;;;;;5.53;5.13;;;24.10;54.70;;;;;;4955653;28;20425;-65
2023/09/15 01:31:00;;;;;;;6.03;5.53;;;24.10;54.60;;;;;;4955471;28;20441;-65
2023/09/15 01:33:27;;;;;;;5.80;5.30;;;24.10;54.80;;;;;;4954082;29;20422;-64
2023/09/15 01:35:53;;;;;;;6.17;5.67;;;24.10;54.70;;;;;;4955172;28;20453;-65
2023/09/15 01:38:18;;;;;;;5.60;5.10;;;24.10;54.70;;;;;;4955232;29;20406;-65
2023/09/15 01:40:45;;;;;;;6.30;5.70;;;24.10;54.70;;;;;;4955184;29;20278;-65
2023/09/15 01:43:10;;;;;;;6.00;5.50;;;24.10;54.70;;;;;;4955270;28;20285;-65
2023/09/15 01:45:36;;;;;;;6.40;5.80;;;24.10;54.70;;;;;;4953771;29;20498;-64
2023/09/15 01:48:03;;;;;;;6.23;5.73;;;24.10;54.70;;;;;;4953818;29;20191;-65
2023/09/15 01:50:30;;;;;;;6.57;5.97;;;24.10;54.70;;;;;;4954983;28;20630;-65
2023/09/15 01:52:56;;;;;;;5.33;4.93;;;24.10;54.70;;;;;;4937737;29;20438;-64
2023/09/15 01:55:22;;;;;;;5.97;5.37;;;24.10;54.70;;;;;;4954722;29;20442;-65
2023/09/15 01:57:48;;;;;;;6.23;5.63;;;24.10;54.70;;;;;;4954930;28;20197;-65
2023/09/15 02:00:14;;;;;;;6.50;5.90;;;24.10;54.70;;;;;;4955093;29;20418;-65
2023/09/15 02:02:39;;;;;;;5.60;5.10;;;24.10;54.70;;;;;;4953394;28;20261;-65
2023/09/15 02:05:05;;;;;;;6.07;5.50;;;24.10;54.70;;;;;;4954735;29;20588;-65
2023/09/15 02:07:31;;;;;;;6.60;6.00;;;24.10;54.70;;;;;;4953748;29;20182;-65
2023/09/15 02:09:56;;;;;;;5.60;5.20;;;24.10;54.70;;;;;;4953386;29;20909;-64
2023/09/15 02:12:22;;;;;;;10.60;5.70;;;24.10;54.60;;;;;;4954626;28;20301;-65
2023/09/15 02:14:47;;;;;;;6.50;5.90;;;24.10;54.60;;;;;;4952952;28;20202;-65
2023/09/15 02:17:15;;;;;;;5.90;5.50;;;24.00;54.60;;;;;;4953262;29;20229;-65
2023/09/15 02:19:44;;;;;;;5.70;5.20;;;24.00;54.60;;;;;;4954530;28;20167;-65
2023/09/15 02:22:10;;;;;;;6.27;5.73;;;24.00;54.60;;;;;;4953021;28;20895;-65
2023/09/15 02:24:35;;;;;;;6.30;5.80;;;24.00;54.60;;;;;;4954440;28;20413;-65
2023/09/15 02:27:01;;;;;;;6.00;5.40;;;24.00;54.50;;;;;;4952981;29;20237;-65
2023/09/15 02:29:27;;;;;;;6.53;5.93;;;24.00;54.60;;;;;;4953275;29;20186;-64
2023/09/15 02:31:54;;;;;;;6.97;6.37;;;24.00;54.50;;;;;;4937021;29;20566;-65
2023/09/15 02:34:20;;;;;;;6.00;5.50;;;24.00;54.60;;;;;;4953181;29;20554;-65
2023/09/15 02:36:46;;;;;;;6.10;5.60;;;24.00;54.50;;;;;;4953080;29;20508;-65
2023/09/15 02:39:11;;;;;;;5.87;5.37;;;24.00;54.50;;;;;;4952836;29;20179;-65
2023/09/15 02:41:37;;;;;;;6.70;6.17;;;24.00;54.60;;;;;;4953904;28;20183;-65
2023/09/15 02:44:02;;;;;;;5.63;5.13;;;24.00;54.60;;;;;;4954292;29;20270;-65
2023/09/15 02:46:28;;;;;;;5.60;5.10;;;24.00;54.50;;;;;;4952564;29;20175;-65
2023/09/15 02:48:56;;;;;;;5.87;5.37;;;24.00;54.50;;;;;;4952601;29;20221;-65
2023/09/15 02:51:21;;;;;;;5.90;5.40;;;24.00;54.50;;;;;;4952406;28;20194;-65
2023/09/15 02:53:47;;;;;;;5.17;4.77;;;24.00;54.50;;;;;;4954118;29;20417;-65
2023/09/15 02:56:13;;;;;;;5.77;5.27;;;24.00;54.50;;;;;;4952455;29;20269;-65
2023/09/15 02:58:38;;;;;;;6.27;5.77;;;24.00;54.50;;;;;;4953872;29;20648;-65
2023/09/15 03:01:14;;;;;;;6.10;5.60;;;24.00;54.50;;;;;;4952278;28;20178;-66
2023/09/15 03:03:39;;;;;;;5.60;5.13;;;24.00;54.50;;;;;;4953683;28;20695;-65
2023/09/15 03:06:07;;;;;;;6.40;5.80;;;24.00;54.50;;;;;;4952315;29;20441;-66
2023/09/15 03:08:33;;;;;;;5.90;5.40;;;23.90;54.40;;;;;;4952286;29;20189;-65
2023/09/15 03:10:59;;;;;;;5.50;5.10;;;23.90;54.50;;;;;;4953778;28;20890;-65
2023/09/15 03:13:26;;;;;;;6.20;5.70;;;23.90;54.40;;;;;;4953472;28;20434;-66
2023/09/15 03:15:51;;;;;;;6.40;5.80;;;23.90;54.50;;;;;;4953371;28;20198;-65
2023/09/15 03:18:17;;;;;;;5.43;5.00;;;23.90;54.40;;;;;;4936145;29;20410;-65
2023/09/15 03:20:43;;;;;;;5.90;5.40;;;23.90;54.50;;;;;;4951986;29;20171;-66
2023/09/15 03:23:09;;;;;;;6.20;5.63;;;23.90;54.40;;;;;;4953302;28;20194;-66
2023/09/15 03:25:34;;;;;;;5.80;5.30;;;23.90;54.40;;;;;;4936018;29;20413;-66
2023/09/15 03:28:00;;;;;;;6.07;5.53;;;23.90;54.40;;;;;;4935497;29;20182;-65
2023/09/15 03:30:26;;;;;;;5.47;5.00;;;23.90;54.40;;;;;;4951956;29;20166;-65
2023/09/15 03:32:52;;;;;;;6.13;5.53;;;23.90;54.40;;;;;;4935829;29;20441;-67
2023/09/15 03:35:18;;;;;;;5.80;5.30;;;23.90;54.40;;;;;;4953359;28;20194;-65
2023/09/15 03:37:44;;;;;;;6.30;5.70;;;23.90;54.40;;;;;;4953103;29;20447;-66
2023/09/15 03:40:11;;;;;;;5.40;4.90;;;23.90;54.40;;;;;;4953426;28;20182;-66
2023/09/15 03:42:38;;;;;;;5.97;5.47;;;23.90;54.40;;;;;;4952943;28;20433;-66
2023/09/15 03:45:08;;;;;;;5.40;5.00;;;23.90;54.40;;;;;;4935943;29;20786;-65
2023/09/15 03:47:33;;;;;;;6.60;6.03;;;23.90;54.40;;;;;;4952032;29;20473;-66
2023/09/15 03:50:00;;;;;;;5.77;5.27;;;23.90;54.40;;;;;;4951759;29;20917;-65
2023/09/15 03:52:25;;;;;;;5.27;4.87;;;23.90;54.50;;;;;;4935740;29;20241;-65
2023/09/15 03:54:51;;;;;;;6.00;5.50;;;23.90;54.40;;;;;;4951494;29;20454;-65
2023/09/15 03:57:17;;;;;;;5.40;4.90;;;23.80;54.40;;;;;;4951633;29;20170;-66
2023/09/15 03:59:42;;;;;;;5.73;5.23;;;23.90;54.40;;;;;;4951549;29;20539;-65
2023/09/15 04:02:08;;;;;;;6.53;5.77;;;23.80;54.30;;;;;;4952798;28;20685;-66
2023/09/15 04:04:34;;;;;;;5.60;5.20;;;23.90;54.40;;;;;;4953123;28;20193;-65
2023/09/15 04:06:59;;;;;;;6.23;5.60;;;23.80;54.30;;;;;;4952849;29;20185;-65
2023/09/15 04:09:25;;;;;;;6.53;5.83;;;23.80;54.30;;;;;;4951480;29;20652;-66
2023/09/15 04:11:51;;;;;;;5.77;5.30;;;23.80;54.30;;;;;;4952873;28;20567;-65
2023/09/15 04:14:17;;;;;;;6.40;5.80;;;23.80;54.30;;;;;;4951413;29;20225;-66
2023/09/15 04:16:43;;;;;;;5.63;5.13;;;23.80;54.30;;;;;;4951491;29;20413;-65
2023/09/15 04:19:08;;;;;;;6.30;5.70;;;23.80;54.30;;;;;;4951264;29;20186;-66
2023/09/15 04:21:37;;;;;;;5.50;5.00;;;23.80;54.30;;;;;;4951454;28;20210;-65
2023/09/15 04:24:03;;;;;;;6.60;6.10;;;23.80;54.30;;;;;;4951329;29;20182;-66
2023/09/15 04:26:29;;;;;;;6.20;5.60;;;23.80;54.40;;;;;;4952630;28;20944;-66
2023/09/15 04:28:54;;;;;;;6.87;6.27;;;23.80;54.40;;;;;;4951068;29;20513;-65
2023/09/15 04:31:20;;;;;;;5.27;4.87;;;23.80;54.40;;;;;;4951981;28;20281;-65
2023/09/15 04:33:48;;;;;;;6.03;5.53;;;23.80;54.40;;;;;;4954258;28;20236;-66
2023/09/15 04:36:13;;;;;;;5.50;5.00;;;23.80;54.40;;;;;;4953745;28;20241;-66
2023/09/15 04:38:39;;;;;;;5.97;5.47;;;23.80;54.40;;;;;;4969122;28;20456;-65
2023/09/15 04:41:05;;;;;;;5.80;5.30;;;23.70;54.20;;;;;;4974532;28;20173;-65
2023/09/15 04:43:31;;;;;;;5.20;4.80;;;23.70;54.30;;;;;;4973864;28;20169;-66
2023/09/15 04:45:57;;;;;;;5.87;5.37;;;23.70;54.20;;;;;;4974505;28;20919;-65
2023/09/15 04:48:23;;;;;;;5.73;5.23;;;23.70;54.20;;;;;;4974769;28;20178;-66
2023/09/15 04:50:49;;;;;;;6.37;5.80;;;23.70;54.10;;;;;;4975174;28;20419;-66
2023/09/15 04:53:15;;;;;;;7.00;6.40;;;23.70;54.10;;;;;;4974252;28;20209;-66
2023/09/15 04:55:40;;;;;;;5.60;5.10;;;23.70;54.20;;;;;;4973895;28;20209;-65
2023/09/15 04:58:06;;;;;;;6.23;5.63;;;23.70;54.20;;;;;;4974041;28;20409;-65
2023/09/15 05:00:34;;;;;;;6.10;5.50;;;23.70;54.20;;;;;;4974194;28;20308;-65
2023/09/15 05:03:00;;;;;;;5.90;5.40;;;23.70;54.10;;;;;;4975084;28;20288;-65
2023/09/15 05:05:26;;;;;;;6.13;5.53;;;23.70;54.20;;;;;;4974017;28;20428;-64
2023/09/15 05:07:52;;;;;;;5.53;5.07;;;23.70;54.70;;;;;;4973633;28;20421;-65
2023/09/15 05:10:18;;;;;;;6.30;5.70;;;23.70;54.10;;;;;;4974727;28;20317;-65
2023/09/15 05:12:44;;;;;;;5.83;5.23;;;23.70;54.10;;;;;;4973059;28;20209;-66
2023/09/15 05:15:10;;;;;;;6.17;5.60;;;23.70;54.10;;;;;;4973465;28;20479;-67
2023/09/15 05:17:36;;;;;;;6.80;5.17;;;23.70;54.20;;;;;;4974906;28;20186;-64
2023/09/15 05:20:02;;;;;;;5.50;5.00;;;23.70;54.20;;;;;;4974808;28;20405;-65
2023/09/15 05:22:28;;;;;;;5.80;5.30;;;23.70;54.20;;;;;;4957443;28;20292;-66
2023/09/15 05:24:55;;;;;;;6.47;5.80;;;23.70;54.20;;;;;;4941482;28;20649;-65
2023/09/15 05:27:21;;;;;;;5.70;5.20;;;23.70;54.20;;;;;;4974736;28;20182;-65
2023/09/15 05:29:46;;;;;;;6.60;5.97;;;23.70;54.20;;;;;;4957355;28;20419;-65
2023/09/15 05:32:12;;;;;;;6.00;5.50;;;23.70;54.20;;;;;;4974613;28;20260;-65
2023/09/15 05:34:38;;;;;;;6.23;5.73;;;23.70;54.20;;;;;;4974453;28;20670;-66
2023/09/15 05:37:04;;;;;;;6.10;5.60;;;23.60;54.20;;;;;;4974871;28;20192;-65
2023/09/15 05:39:31;;;;;;;6.40;5.80;;;23.60;54.20;;;;;;4974433;28;20413;-65
2023/09/15 05:41:56;;;;;;;5.93;5.43;;;23.60;54.20;;;;;;4974702;28;20491;-63
2023/09/15 05:44:22;;;;;;;6.23;5.73;;;23.60;54.20;;;;;;4972975;28;20825;-65
2023/09/15 05:46:48;;;;;;;6.37;5.80;;;23.60;54.20;;;;;;4956997;28;20189;-65
2023/09/15 05:49:13;;;;;;;5.80;5.30;;;23.60;54.20;;;;;;4971629;28;20181;-66
2023/09/15 05:51:39;;;;;;;6.10;5.57;;;23.60;54.20;;;;;;4972711;28;20614;-64
2023/09/15 05:54:05;;;;;;;6.50;5.90;;;23.60;54.20;;;;;;4972643;28;20656;-65
2023/09/15 05:56:31;;;;;;;6.37;5.77;;;23.60;54.20;;;;;;4971805;28;20213;-65
2023/09/15 05:58:58;;;;;;;7.00;5.30;;;23.60;54.20;;;;;;4974449;28;20957;-65
2023/09/15 06:01:24;;;;;;;7.63;5.90;;;23.60;54.20;;;;;;4956636;28;20611;-65
2023/09/15 06:03:49;;;;;;;7.10;5.93;;;23.60;54.30;;;;;;4956713;28;20645;-64
2023/09/15 06:06:16;;;;;;;5.87;5.37;;;23.60;54.30;;;;;;4972811;28;20923;-66
2023/09/15 06:08:42;;;;;;;7.13;6.50;;;23.60;54.30;;;;;;4956649;28;20181;-66
2023/09/15 06:11:08;;;;;;;5.33;4.93;;;23.60;54.30;;;;;;4972523;28;20440;-64
2023/09/15 06:13:34;;;;;;;5.63;5.03;;;23.60;54.30;;;;;;4956415;28;20239;-64
2023/09/15 06:16:00;;;;;;;5.83;5.30;;;23.60;54.30;;;;;;4972428;28;20619;-66
2023/09/15 06:18:25;;;;;;;6.13;5.53;;;23.60;54.30;;;;;;4972381;28;20500;-66
2023/09/15 06:20:55;;;;;;;6.00;5.50;;;23.60;54.30;;;;;;4973758;28;20174;-65
2023/09/15 06:23:21;;;;;;;5.33;4.93;;;23.60;54.30;;;;;;4972391;28;20321;-64
2023/09/15 06:25:46;;;;;;;5.70;5.20;;;23.60;54.30;;;;;;4956286;28;20421;-66
2023/09/15 06:28:12;;;;;;;6.00;5.07;;;23.60;54.30;;;;;;4973691;28;20424;-65
2023/09/15 06:30:38;;;;;;;5.47;4.97;;;23.50;54.30;;;;;;4956172;28;20224;-65
2023/09/15 06:33:03;;;;;;;5.10;4.63;;;23.60;54.30;;;;;;4972083;28;20329;-65
2023/09/15 06:35:29;;;;;;;6.10;5.00;;;23.60;54.30;;;;;;4972071;28;20201;-65
2023/09/15 06:37:55;;;;;;;5.87;5.40;;;23.60;54.30;;;;;;4973168;28;20180;-65
2023/09/15 06:40:20;;;;;;;5.70;5.27;;;23.50;54.20;;;;;;4973129;28;20188;-64
2023/09/15 06:42:46;;;;;;;5.40;4.90;;;23.60;54.30;;;;;;4972249;28;20248;-65
2023/09/15 06:45:12;;;;;;;6.00;5.40;;;23.60;54.30;;;;;;4972202;28;20194;-64
2023/09/15 06:47:38;;;;;;;5.80;5.20;;;23.60;54.30;;;;;;4973039;28;20194;-66
2023/09/15 06:50:03;;;;;;;9.80;5.37;;;23.60;54.40;;;;;;4972449;28;20216;-64
2023/09/15 06:52:30;;;;;;;6.13;5.60;;;23.60;54.30;;;;;;4952406;28;20458;-64
2023/09/15 06:54:56;;;;;;;5.13;4.73;;;23.60;54.40;;;;;;4934263;29;20661;-65
2023/09/15 06:57:23;;;;;;;6.30;5.63;;;23.60;54.40;;;;;;4920334;29;20450;-66
2023/09/15 06:59:49;;;;;;;5.70;5.10;;;23.60;54.40;;;;;;4953305;28;20426;-65
2023/09/15 07:02:14;;;;;;;5.83;5.33;;;23.60;54.40;;;;;;4952916;28;20426;-64
2023/09/15 07:04:43;;;;;;;5.53;4.80;;;23.50;54.30;;;;;;4952347;29;20261;-66
2023/09/15 07:07:09;;;;;;;5.30;4.80;;;23.50;54.30;;;;;;4952393;29;20210;-66
2023/09/15 07:09:34;;;;;;;7.10;5.73;;;23.60;54.40;;;;;;4952270;29;20496;-66
2023/09/15 07:12:00;;;;;;;5.50;5.10;;;23.50;54.40;;;;;;4952076;28;21019;-65
2023/09/15 07:14:26;;;;;;;6.27;5.67;;;23.50;54.40;;;;;;4953400;29;20167;-65
2023/09/15 07:16:51;;;;;;;5.53;5.07;;;23.60;54.50;;;;;;4953504;29;20258;-64
2023/09/15 07:19:17;;;;;;;5.23;4.73;;;23.60;54.50;;;;;;4953410;29;20640;-65
2023/09/15 07:21:44;;;;;;;5.77;5.27;;;23.60;54.50;;;;;;4968081;28;20253;-66
2023/09/15 07:24:09;;;;;;;4.90;4.40;;;23.60;54.50;;;;;;4936196;29;20190;-65
2023/09/15 07:26:35;;;;;;;7.73;4.70;;;23.60;55.00;;;;;;4952245;29;20777;-65
2023/09/15 07:29:01;;;;;;;5.20;4.70;;;23.60;54.60;;;;;;4952043;29;20681;-65
2023/09/15 07:31:27;;;;;;;5.20;4.63;;;23.60;54.60;;;;;;4952969;28;20700;-65
2023/09/15 07:33:53;;;;;;;5.80;4.97;;;23.60;54.60;;;;;;4933007;28;20661;-66
2023/09/15 07:36:19;;;;;;;4.97;4.57;;;23.60;54.60;;;;;;4954855;28;20508;-65
2023/09/15 07:38:46;;;;;;;5.60;5.00;;;23.50;54.50;;;;;;4972357;28;20421;-64
2023/09/15 07:41:13;;;;;;;6.00;4.80;;;23.60;54.60;;;;;;4969721;28;20256;-65
2023/09/15 07:43:39;;;;;;;6.13;5.57;;;23.60;54.60;;;;;;4971193;28;20912;-64
2023/09/15 07:46:04;;;;;;;5.40;4.90;;;23.60;54.60;;;;;;4971555;28;20440;-66
2023/09/15 07:48:31;;;;;;;4.83;4.33;;;23.60;54.60;;;;;;4970519;28;20193;-65
2023/09/15 07:50:57;;;;;;;4.83;4.43;;;23.60;54.70;;;;;;4953914;28;20567;-65
2023/09/15 07:53:23;;;;;;;4.70;4.30;;;23.60;54.70;;;;;;4970744;28;20429;-65
2023/09/15 07:55:48;;;;;;;5.30;4.60;;;23.60;54.70;;;;;;4953448;28;20214;-64
2023/09/15 07:58:14;;;;;;;7.50;5.13;;;23.60;54.70;;;;;;4954693;28;20212;-64
2023/09/15 08:00:39;;;;;;;4.97;4.47;;;23.60;54.70;;;;;;4972248;28;20656;-65
2023/09/15 08:03:05;;;;;;;6.10;5.17;;;23.60;54.70;;;;;;4970573;28;20603;-65
2023/09/15 08:05:31;;;;;;;4.77;4.30;;;23.60;54.70;;;;;;4972206;28;20197;-66
2023/09/15 08:07:56;;;;;;;5.57;4.63;;;23.60;54.70;;;;;;4969618;28;20177;-66
2023/09/15 08:10:23;;;;;;;4.93;4.47;;;23.60;54.70;;;;;;4952954;28;20213;-68
2023/09/15 08:12:52;;;;;;;7.80;4.00;;;23.60;54.70;;;;;;4972750;28;20217;-66
2023/09/15 08:15:21;;;;;;;5.60;5.10;;;23.60;54.80;;;;;;4974510;28;20464;-66
2023/09/15 08:17:48;;;;;;;4.97;4.57;;;23.60;54.80;;;;;;4975545;28;20500;-66
2023/09/15 08:20:14;;;;;;;5.50;4.80;;;23.60;54.80;;;;;;4975247;28;20503;-67
2023/09/15 08:22:41;;;;;;;5.03;4.63;;;23.60;54.80;;;;;;4975768;28;20448;-65
2023/09/15 08:25:07;;;;;;;5.53;5.03;;;23.60;54.80;;;;;;4974711;28;20452;-66
2023/09/15 08:27:33;;;;;;;6.03;4.73;;;23.60;54.80;;;;;;4975770;28;21253;-64
2023/09/15 08:29:59;;;;;;;4.93;4.43;;;23.60;54.70;;;;;;4975678;28;20409;-66
2023/09/15 08:32:25;;;;;;;5.70;4.70;;;23.60;54.80;;;;;;4975599;28;20213;-66
2023/09/15 08:34:51;;;;;;;5.70;4.30;;;23.60;54.80;;;;;;4975621;28;20468;-66
2023/09/15 08:37:16;;;;;;;4.23;3.83;;;23.60;54.90;;;;;;4975649;28;20256;-66
2023/09/15 08:39:42;;;;;;;5.07;4.23;;;23.70;54.90;;;;;;4975600;28;20220;-63
2023/09/15 08:42:20;;;;;;;5.33;4.30;;;23.60;54.90;;;;;;4975422;28;20572;-66
2023/09/15 08:44:46;;;;;;;6.10;4.20;;;23.70;54.80;;;;;;4975810;28;20551;-66
2023/09/15 08:47:11;;;;;;;5.10;4.60;;;23.70;54.80;;;;;;4975512;28;20514;-66
2023/09/15 08:49:38;;;;;;;5.07;4.30;;;23.70;54.80;;;;;;4975456;28;20188;-66
2023/09/15 08:52:05;;;;;;;4.83;4.43;;;23.70;54.90;;;;;;4974317;28;20213;-66
2023/09/15 08:54:31;;;;;;;4.77;4.37;;;23.70;54.90;;;;;;4975270;28;21224;-66
2023/09/15 08:56:58;;;;;;;4.57;3.90;;;23.70;54.90;;;;;;4975287;28;20413;-66
2023/09/15 08:59:24;;;;;;;8.93;5.00;;;23.70;54.90;;;;;;4975536;28;20415;-66
2023/09/15 09:01:50;;;;;;;4.47;4.07;;;23.60;54.80;;;;;;4975142;28;20545;-66
2023/09/15 09:04:16;;;;;;;4.60;4.20;;;23.70;54.80;;;;;;4975153;28;20420;-65
2023/09/15 09:06:43;;;;;;;4.10;3.80;;;23.70;54.90;;;;;;4975348;28;20991;-66
2023/09/15 09:09:09;;;;;;;4.03;3.63;;;23.70;54.90;;;;;;4975125;28;20177;-65
2023/09/15 09:11:38;;;;;;;4.30;3.90;;;23.70;55.00;;;;;;4974946;28;20787;-66
2023/09/15 09:14:10;;;;;;;4.90;3.87;;;23.70;55.00;;;;;;4973863;28;20604;-66
2023/09/15 09:16:47;;;;;;;4.80;4.20;;;23.60;54.80;;;;;;4974906;28;20452;-66
2023/09/15 09:19:13;;;;;;;4.17;3.77;;;23.60;54.90;;;;;;4975167;28;20405;-66
2023/09/15 09:21:39;;;;;;;4.20;3.80;;;23.60;55.00;;;;;;4974757;28;20429;-66
2023/09/15 09:24:05;;;;;;;4.33;3.93;;;23.60;55.00;;;;;;4973068;28;20419;-66
2023/09/15 09:26:31;;;;;;;4.27;3.87;;;23.50;54.90;;;;;;4972898;28;20429;-66
2023/09/15 09:28:59;;;;;;;3.97;3.40;;;23.60;55.00;;;;;;4974278;28;20419;-66
2023/09/15 09:31:26;;;;;;;4.70;4.00;;;23.60;55.00;;;;;;4973308;28;20201;-66
2023/09/15 09:33:53;;;;;;;4.70;3.70;;;23.60;55.00;;;;;;4975029;28;20428;-65
2023/09/15 09:36:19;;;;;;;4.80;4.30;;;23.60;55.00;;;;;;4974574;28;20464;-65
2023/09/15 09:38:47;;;;;;;4.20;3.80;;;23.60;55.00;;;;;;4974579;28;20424;-66
2023/09/15 09:41:15;;;;;;;4.37;3.80;;;23.60;55.10;;;;;;4973937;28;20190;-66
2023/09/15 09:43:46;;;;;;;4.37;3.70;;;23.60;55.10;;;;;;4973668;28;20413;-66
2023/09/15 09:46:16;;;;;;;4.50;3.90;;;23.60;55.10;;;;;;4974496;28;20456;-66
2023/09/15 09:48:42;;;;;;;4.43;4.03;;;23.60;55.10;;;;;;4974341;28;20415;-67
2023/09/15 09:51:08;;;;;;;4.13;3.60;;;23.60;55.20;;;;;;4974199;28;20911;-66
2023/09/15 09:53:35;;;;;;;3.50;3.20;;;23.60;55.20;;;;;;4974044;28;20421;-66
2023/09/15 09:56:03;;;;;;;5.93;3.67;;;23.60;55.30;;;;;;4974155;28;20208;-65
2023/09/15 09:58:28;;;;;;;4.07;3.77;;;23.70;55.40;;;;;;4974117;28;20420;-63
2023/09/15 10:00:54;;;;;;;3.70;3.40;;;23.70;55.30;;;;;;4973995;28;20416;-65
2023/09/15 10:03:23;;;;;;;3.57;3.27;;;23.70;55.40;;;;;;4974362;28;20188;-66
2023/09/15 10:05:49;;;;;;;4.00;3.60;;;23.70;55.40;;;;;;4973922;28;20425;-64
2023/09/15 10:08:16;;;;;;;4.00;3.70;;;23.70;55.40;;;;;;4972690;28;20520;-65
2023/09/15 10:10:44;;;;;;;3.70;3.40;;;23.70;55.50;;;;;;4972909;28;20417;-67
2023/09/15 10:13:10;;;;;;;4.50;3.70;;;23.70;55.40;;;;;;4973571;28;20457;-66
2023/09/15 10:15:40;;;;;;;4.13;3.70;;;23.70;55.50;;;;;;4972405;28;20909;-66
2023/09/15 10:18:07;;;;;;;3.60;3.30;;;23.70;55.50;;;;;;4973758;28;20416;-65
2023/09/15 10:20:35;;;;;;;3.93;3.60;;;23.80;55.70;;;;;;4973925;28;20441;-67
2023/09/15 10:23:01;;;;;;;4.27;3.80;;;23.80;55.70;;;;;;4973554;28;20441;-65
2023/09/15 10:25:27;;;;;;;4.07;3.70;;;23.80;55.60;;;;;;4973704;28;20545;-65
2023/09/15 10:27:54;;;;;;;5.27;4.30;;;23.80;55.60;;;;;;4973499;28;20493;-67
2023/09/15 10:30:21;;;;;;;5.17;3.10;;;23.80;55.60;;;;;;4973479;28;20182;-66
2023/09/15 10:32:48;;;;;;;3.60;3.27;;;23.80;56.20;;;;;;4973379;28;20441;-66
2023/09/15 10:35:16;;;;;;;4.90;3.20;;;23.80;55.60;;;;;;4973301;28;20870;-67
2023/09/15 10:37:43;;;;;;;3.57;3.27;;;23.80;55.60;;;;;;4973353;28;20916;-66
2023/09/15 10:40:10;;;;;;;5.50;2.90;;;23.80;55.60;;;;;;4973189;28;20417;-66
2023/09/15 10:42:48;;;;;;;4.37;3.97;;;23.80;55.70;;;;;;4973222;28;20511;-67
2023/09/15 10:45:14;;;;;;;3.90;3.57;;;23.80;55.70;;;;;;4971869;28;20421;-66
2023/09/15 10:47:41;;;;;;;3.63;3.33;;;23.80;55.70;;;;;;4973127;28;20423;-66
2023/09/15 10:50:07;;;;;;;5.00;3.40;;;23.80;55.70;;;;;;4973146;28;20539;-66
2023/09/15 10:52:37;;;;;;;3.53;3.23;;;23.90;55.70;;;;;;4973058;28;20479;-66
2023/09/15 10:55:04;;;;;;;3.80;3.47;;;23.80;55.70;;;;;;4972998;28;20468;-66
2023/09/15 10:57:36;;;;;;;3.47;3.20;;;23.90;55.70;;;;;;4972456;28;21035;-64
2023/09/15 11:00:06;;;;;;;4.37;3.50;;;23.90;55.70;;;;;;4972753;28;20401;-66
2023/09/15 11:02:35;;;;;;;3.07;2.87;;;23.80;55.70;;;;;;4972535;28;20441;-66
2023/09/15 11:05:00;;;;;;;3.87;3.47;;;23.90;55.80;;;;;;4972750;28;20990;-66
2023/09/15 11:07:28;;;;;;;3.60;3.30;;;23.90;56.30;;;;;;4972755;28;20464;-66
2023/09/15 11:09:57;;;;;;;3.70;3.40;;;23.90;55.70;;;;;;4973041;28;20461;-66
2023/09/15 11:12:23;;;;;;;4.33;3.97;;;23.90;55.70;;;;;;4972777;28;20465;-65
2023/09/15 11:14:49;;;;;;;4.00;3.60;;;23.90;55.70;;;;;;4972927;28;20507;-66
2023/09/15 11:17:17;;;;;;;3.70;3.33;;;23.90;55.70;;;;;;4972684;28;20507;-66
2023/09/15 11:19:43;;;;;;;3.80;3.10;;;23.90;55.70;;;;;;4972770;28;20181;-65
2023/09/15 11:22:11;;;;;;;3.40;3.10;;;23.90;55.70;;;;;;4972477;28;20429;-66
2023/09/15 11:24:37;;;;;;;4.10;2.80;;;23.90;55.70;;;;;;4971376;28;20181;-65
2023/09/15 11:27:02;;;;;;;3.47;3.17;;;23.90;55.70;;;;;;4972468;28;20937;-66
2023/09/15 11:29:30;;;;;;;3.70;3.33;;;23.90;55.70;;;;;;4972330;28;20180;-67
2023/09/15 11:31:56;;;;;;;3.83;3.47;;;23.90;55.80;;;;;;4971047;28;20691;-65
2023/09/15 11:34:22;;;;;;;4.17;3.73;;;23.90;55.80;;;;;;4972671;28;20923;-66
2023/09/15 11:36:56;;;;;;;4.97;4.30;;;23.90;55.80;;;;;;4972362;28;20475;-63
2023/09/15 11:39:23;;;;;;;5.53;4.60;;;23.90;55.80;;;;;;4972282;28;20762;-66
2023/09/15 11:41:53;;;;;;;10.73;5.63;;;24.00;55.90;;;;;;4972243;28;20807;-66
2023/09/15 11:44:26;;;;;;;14.03;8.33;;;23.90;55.80;;;;;;4972580;28;20409;-65
2023/09/15 11:46:53;;;;;;;12.67;7.93;;;23.90;55.80;;;;;;4972303;28;20408;-66
2023/09/15 11:49:19;;;;;;;15.80;9.77;;;24.00;55.90;;;;;;4971700;28;20504;-66
2023/09/15 11:51:46;;;;;;;15.33;9.23;;;24.00;55.90;;;;;;4972073;28;20425;-66
2023/09/15 11:54:12;;;;;;;22.50;13.87;;;24.00;55.90;;;;;;4972252;28;20424;-66
2023/09/15 11:56:39;;;;;;;30.30;17.17;;;24.00;55.90;;;;;;4972090;28;20484;-66
2023/09/15 11:59:06;;;;;;;29.27;17.10;;;24.00;55.90;;;;;;4972465;28;20432;-65
2023/09/15 12:01:32;;;;;;;28.33;16.67;;;24.00;55.90;;;;;;4972054;28;20432;-65
2023/09/15 12:03:58;;;;;;;29.17;17.37;;;24.00;55.90;;;;;;4972154;28;20914;-65
2023/09/15 12:06:24;;;;;;;30.10;17.87;;;24.00;56.00;;;;;;4971832;28;20515;-66
2023/09/15 12:08:51;;;;;;;29.60;18.20;;;24.00;56.00;;;;;;4972347;28;20837;-65
2023/09/15 12:11:18;;;;;;;28.03;17.60;;;24.00;56.10;;;;;;4971698;28;20444;-66
2023/09/15 12:13:46;;;;;;;32.57;18.87;;;24.00;56.00;;;;;;4971853;28;20440;-65
2023/09/15 12:16:17;;;;;;;27.70;17.13;;;24.00;56.10;;;;;;4971793;28;20463;-65
2023/09/15 12:18:46;;;;;;;33.23;19.50;;;24.00;56.10;;;;;;4971954;28;20413;-66
2023/09/15 12:21:12;;;;;;;28.50;17.17;;;24.10;56.10;;;;;;4971767;28;20416;-65
2023/09/15 12:23:38;;;;;;;32.50;19.77;;;24.10;56.20;;;;;;4971885;28;20536;-66
2023/09/15 12:26:03;;;;;;;26.50;16.10;;;24.10;56.20;;;;;;4971859;28;20890;-66
2023/09/15 12:28:29;;;;;;;36.97;19.93;;;24.10;56.20;;;;;;4971809;28;20551;-66
2023/09/15 12:30:58;;;;;;;25.40;16.07;;;24.10;56.20;;;;;;4971332;28;20236;-67
2023/09/15 12:33:26;;;;;;;31.87;19.07;;;24.10;56.10;;;;;;4971763;28;20236;-65
2023/09/15 12:35:56;;;;;;;30.37;17.70;;;24.10;56.10;;;;;;4971971;28;20519;-65
2023/09/15 12:38:22;;;;;;;29.23;16.83;;;24.10;56.10;;;;;;4972010;28;20747;-64
2023/09/15 12:40:50;;;;;;;25.20;16.30;;;24.10;56.10;;;;;;4971654;28;20420;-66
2023/09/15 12:43:15;;;;;;;30.07;16.50;;;24.10;56.10;;;;;;4971397;28;20586;-65